sensor_id;sensor_type;location;lat;lon;timestamp;P1;durP1;ratioP1;P2;durP2;ratioP2
56770;SDS011;42641;59.794;17.616;2023-06-22T00:02:18;9.52;;;8.70;;
56770;SDS011;42641;59.794;17.616;2023-06-22T00:04:44;9.65;;;8.73;;
56770;SDS011;42641;59.794;17.616;2023-06-22T00:07:11;9.07;;;8.27;;
56770;SDS011;42641;59.794;17.616;2023-06-22T00:09:37;9.05;;;8.15;;
56770;SDS011;42641;59.794;17.616;2023-06-22T00:12:04;8.65;;;7.88;;
56770;SDS011;42641;59.794;17.616;2023-06-22T00:14:31;9.80;;;8.85;;
56770;SDS011;42641;59.794;17.616;2023-06-22T00:16:57;9.60;;;8.70;;
56770;SDS011;42641;59.794;17.616;2023-06-22T00:19:24;9.05;;;8.25;;
56770;SDS011;42641;59.794;17.616;2023-06-22T00:21:51;9.55;;;8.65;;
56770;SDS011;42641;59.794;17.616;2023-06-22T00:24:20;9.43;;;8.48;;
56770;SDS011;42641;59.794;17.616;2023-06-22T00:26:47;9.65;;;8.75;;
56770;SDS011;42641;59.794;17.616;2023-06-22T00:29:15;9.18;;;8.38;;
56770;SDS011;42641;59.794;17.616;2023-06-22T00:31:42;9.10;;;8.30;;
56770;SDS011;42641;59.794;17.616;2023-06-22T00:34:08;9.13;;;8.27;;
56770;SDS011;42641;59.794;17.616;2023-06-22T00:36:35;9.55;;;8.65;;
56770;SDS011;42641;59.794;17.616;2023-06-22T00:39:03;10.05;;;9.05;;
56770;SDS011;42641;59.794;17.616;2023-06-22T00:41:30;10.70;;;9.60;;
56770;SDS011;42641;59.794;17.616;2023-06-22T00:43:57;9.43;;;8.63;;
56770;SDS011;42641;59.794;17.616;2023-06-22T00:46:23;9.85;;;8.85;;
56770;SDS011;42641;59.794;17.616;2023-06-22T00:48:50;10.40;;;9.40;;
56770;SDS011;42641;59.794;17.616;2023-06-22T00:51:18;10.32;;;9.43;;
56770;SDS011;42641;59.794;17.616;2023-06-22T00:53:50;10.00;;;9.00;;
56770;SDS011;42641;59.794;17.616;2023-06-22T00:56:17;10.18;;;9.25;;
56770;SDS011;42641;59.794;17.616;2023-06-22T00:58:45;9.68;;;8.80;;
56770;SDS011;42641;59.794;17.616;2023-06-22T01:01:13;10.60;;;9.60;;
56770;SDS011;42641;59.794;17.616;2023-06-22T01:03:40;10.43;;;9.52;;
56770;SDS011;42641;59.794;17.616;2023-06-22T01:06:08;10.20;;;9.32;;
56770;SDS011;42641;59.794;17.616;2023-06-22T01:08:42;10.48;;;9.55;;
56770;SDS011;42641;59.794;17.616;2023-06-22T01:11:24;10.65;;;9.68;;
56770;SDS011;42641;59.794;17.616;2023-06-22T01:13:57;11.68;;;10.48;;
56770;SDS011;42641;59.794;17.616;2023-06-22T01:16:31;10.63;;;9.73;;
56770;SDS011;42641;59.794;17.616;2023-06-22T01:22:07;10.77;;;9.65;;
56770;SDS011;42641;59.794;17.616;2023-06-22T01:30:43;11.85;;;10.68;;
56770;SDS011;42641;59.794;17.616;2023-06-22T01:33:12;11.85;;;10.75;;
56770;SDS011;42641;59.794;17.616;2023-06-22T01:35:39;11.45;;;10.45;;
56770;SDS011;42641;59.794;17.616;2023-06-22T01:38:06;11.70;;;10.57;;
56770;SDS011;42641;59.794;17.616;2023-06-22T01:40:35;11.15;;;10.10;;
56770;SDS011;42641;59.794;17.616;2023-06-22T01:43:02;10.90;;;9.90;;
56770;SDS011;42641;59.794;17.616;2023-06-22T01:45:29;11.40;;;10.30;;
56770;SDS011;42641;59.794;17.616;2023-06-22T01:47:56;14.05;;;10.93;;
56770;SDS011;42641;59.794;17.616;2023-06-22T01:50:23;11.27;;;10.18;;
56770;SDS011;42641;59.794;17.616;2023-06-22T01:52:50;11.80;;;10.70;;
56770;SDS011;42641;59.794;17.616;2023-06-22T01:55:16;12.20;;;11.00;;
56770;SDS011;42641;59.794;17.616;2023-06-22T01:57:43;10.95;;;9.95;;
56770;SDS011;42641;59.794;17.616;2023-06-22T02:00:11;12.52;;;11.32;;
56770;SDS011;42641;59.794;17.616;2023-06-22T02:05:37;11.68;;;10.57;;
56770;SDS011;42641;59.794;17.616;2023-06-22T02:08:09;11.25;;;10.15;;
56770;SDS011;42641;59.794;17.616;2023-06-22T02:10:46;11.50;;;10.27;;
56770;SDS011;42641;59.794;17.616;2023-06-22T02:13:15;12.35;;;10.93;;
56770;SDS011;42641;59.794;17.616;2023-06-22T02:15:42;11.75;;;10.35;;
56770;SDS011;42641;59.794;17.616;2023-06-22T02:18:12;12.38;;;11.18;;
56770;SDS011;42641;59.794;17.616;2023-06-22T02:20:39;11.35;;;10.27;;
56770;SDS011;42641;59.794;17.616;2023-06-22T02:23:06;12.20;;;10.90;;
56770;SDS011;42641;59.794;17.616;2023-06-22T02:25:35;12.02;;;10.93;;
56770;SDS011;42641;59.794;17.616;2023-06-22T02:28:02;11.35;;;10.35;;
56770;SDS011;42641;59.794;17.616;2023-06-22T02:30:28;11.18;;;10.18;;
56770;SDS011;42641;59.794;17.616;2023-06-22T02:32:55;12.23;;;11.13;;
56770;SDS011;42641;59.794;17.616;2023-06-22T02:35:25;12.38;;;11.13;;
56770;SDS011;42641;59.794;17.616;2023-06-22T02:37:52;12.30;;;11.20;;
56770;SDS011;42641;59.794;17.616;2023-06-22T02:40:18;12.13;;;10.93;;
56770;SDS011;42641;59.794;17.616;2023-06-22T02:42:45;12.30;;;11.20;;
56770;SDS011;42641;59.794;17.616;2023-06-22T02:45:11;13.00;;;11.80;;
56770;SDS011;42641;59.794;17.616;2023-06-22T02:47:38;12.50;;;11.30;;
56770;SDS011;42641;59.794;17.616;2023-06-22T02:50:04;12.93;;;11.70;;
56770;SDS011;42641;59.794;17.616;2023-06-22T02:52:33;12.60;;;11.48;;
56770;SDS011;42641;59.794;17.616;2023-06-22T02:55:00;12.82;;;11.63;;
56770;SDS011;42641;59.794;17.616;2023-06-22T02:57:27;12.20;;;11.00;;
56770;SDS011;42641;59.794;17.616;2023-06-22T02:59:55;12.45;;;11.35;;
56770;SDS011;42641;59.794;17.616;2023-06-22T03:02:21;12.65;;;11.55;;
56770;SDS011;42641;59.794;17.616;2023-06-22T03:04:48;12.13;;;10.80;;
56770;SDS011;42641;59.794;17.616;2023-06-22T03:07:15;13.07;;;11.70;;
56770;SDS011;42641;59.794;17.616;2023-06-22T03:09:43;12.73;;;11.52;;
56770;SDS011;42641;59.794;17.616;2023-06-22T03:12:10;12.00;;;10.90;;
56770;SDS011;42641;59.794;17.616;2023-06-22T03:14:49;12.48;;;11.38;;
56770;SDS011;42641;59.794;17.616;2023-06-22T03:17:16;12.52;;;11.40;;
56770;SDS011;42641;59.794;17.616;2023-06-22T03:19:43;12.93;;;11.73;;
56770;SDS011;42641;59.794;17.616;2023-06-22T03:22:10;11.90;;;10.82;;
56770;SDS011;42641;59.794;17.616;2023-06-22T03:24:36;12.05;;;10.95;;
56770;SDS011;42641;59.794;17.616;2023-06-22T03:27:04;11.90;;;10.80;;
56770;SDS011;42641;59.794;17.616;2023-06-22T03:29:33;12.27;;;10.88;;
56770;SDS011;42641;59.794;17.616;2023-06-22T03:32:00;12.35;;;11.25;;
56770;SDS011;42641;59.794;17.616;2023-06-22T03:34:27;11.90;;;10.82;;
56770;SDS011;42641;59.794;17.616;2023-06-22T03:36:53;12.63;;;11.43;;
56770;SDS011;42641;59.794;17.616;2023-06-22T03:39:20;12.68;;;11.52;;
56770;SDS011;42641;59.794;17.616;2023-06-22T03:41:46;11.75;;;10.65;;
56770;SDS011;42641;59.794;17.616;2023-06-22T03:44:13;12.15;;;11.05;;
56770;SDS011;42641;59.794;17.616;2023-06-22T03:46:39;11.77;;;10.68;;
56770;SDS011;42641;59.794;17.616;2023-06-22T03:49:06;11.52;;;10.52;;
56770;SDS011;42641;59.794;17.616;2023-06-22T03:51:32;11.77;;;10.75;;
56770;SDS011;42641;59.794;17.616;2023-06-22T03:53:59;11.68;;;10.48;;
56770;SDS011;42641;59.794;17.616;2023-06-22T03:56:25;10.80;;;9.80;;
56770;SDS011;42641;59.794;17.616;2023-06-22T03:58:52;10.27;;;9.27;;
56770;SDS011;42641;59.794;17.616;2023-06-22T04:01:18;10.85;;;9.75;;
56770;SDS011;42641;59.794;17.616;2023-06-22T04:03:45;10.60;;;9.60;;
56770;SDS011;42641;59.794;17.616;2023-06-22T04:06:13;11.40;;;10.30;;
56770;SDS011;42641;59.794;17.616;2023-06-22T04:08:40;10.10;;;9.10;;
56770;SDS011;42641;59.794;17.616;2023-06-22T04:11:06;12.00;;;10.32;;
56770;SDS011;42641;59.794;17.616;2023-06-22T04:13:33;11.00;;;9.90;;
56770;SDS011;42641;59.794;17.616;2023-06-22T04:15:59;10.40;;;9.50;;
56770;SDS011;42641;59.794;17.616;2023-06-22T04:18:27;10.38;;;9.38;;
56770;SDS011;42641;59.794;17.616;2023-06-22T04:20:53;10.55;;;9.60;;
56770;SDS011;42641;59.794;17.616;2023-06-22T04:23:20;11.85;;;10.77;;
56770;SDS011;42641;59.794;17.616;2023-06-22T04:25:46;11.73;;;10.73;;
56770;SDS011;42641;59.794;17.616;2023-06-22T04:28:12;10.27;;;9.38;;
56770;SDS011;42641;59.794;17.616;2023-06-22T04:30:39;11.25;;;10.15;;
56770;SDS011;42641;59.794;17.616;2023-06-22T04:33:12;10.90;;;9.90;;
56770;SDS011;42641;59.794;17.616;2023-06-22T04:35:40;11.38;;;10.38;;
56770;SDS011;42641;59.794;17.616;2023-06-22T04:38:07;10.75;;;9.75;;
56770;SDS011;42641;59.794;17.616;2023-06-22T04:40:33;10.75;;;9.77;;
56770;SDS011;42641;59.794;17.616;2023-06-22T04:43:00;11.98;;;10.85;;
56770;SDS011;42641;59.794;17.616;2023-06-22T04:45:28;11.13;;;10.07;;
56770;SDS011;42641;59.794;17.616;2023-06-22T04:47:55;11.40;;;10.15;;
56770;SDS011;42641;59.794;17.616;2023-06-22T04:50:21;11.73;;;10.63;;
56770;SDS011;42641;59.794;17.616;2023-06-22T04:52:49;11.45;;;10.35;;
56770;SDS011;42641;59.794;17.616;2023-06-22T04:55:16;11.15;;;10.15;;
56770;SDS011;42641;59.794;17.616;2023-06-22T04:57:45;11.48;;;10.40;;
56770;SDS011;42641;59.794;17.616;2023-06-22T05:00:18;11.23;;;10.23;;
56770;SDS011;42641;59.794;17.616;2023-06-22T05:02:49;11.35;;;10.35;;
56770;SDS011;42641;59.794;17.616;2023-06-22T05:05:16;10.88;;;9.80;;
56770;SDS011;42641;59.794;17.616;2023-06-22T05:07:43;10.80;;;9.85;;
56770;SDS011;42641;59.794;17.616;2023-06-22T05:10:13;11.23;;;10.15;;
56770;SDS011;42641;59.794;17.616;2023-06-22T05:12:41;11.63;;;10.35;;
56770;SDS011;42641;59.794;17.616;2023-06-22T05:15:07;11.27;;;10.27;;
56770;SDS011;42641;59.794;17.616;2023-06-22T05:17:35;10.60;;;9.65;;
56770;SDS011;42641;59.794;17.616;2023-06-22T05:20:02;10.95;;;9.95;;
56770;SDS011;42641;59.794;17.616;2023-06-22T05:22:32;11.00;;;10.00;;
56770;SDS011;42641;59.794;17.616;2023-06-22T05:24:58;10.18;;;9.25;;
56770;SDS011;42641;59.794;17.616;2023-06-22T05:27:24;9.85;;;8.95;;
56770;SDS011;42641;59.794;17.616;2023-06-22T05:29:51;10.02;;;9.13;;
56770;SDS011;42641;59.794;17.616;2023-06-22T05:32:17;9.95;;;9.02;;
56770;SDS011;42641;59.794;17.616;2023-06-22T05:34:44;10.50;;;9.50;;
56770;SDS011;42641;59.794;17.616;2023-06-22T05:37:11;9.73;;;8.85;;
56770;SDS011;42641;59.794;17.616;2023-06-22T05:39:38;9.73;;;8.93;;
56770;SDS011;42641;59.794;17.616;2023-06-22T05:42:05;10.38;;;9.25;;
56770;SDS011;42641;59.794;17.616;2023-06-22T05:44:33;10.45;;;8.80;;
56770;SDS011;42641;59.794;17.616;2023-06-22T05:47:00;9.32;;;8.52;;
56770;SDS011;42641;59.794;17.616;2023-06-22T05:49:26;9.63;;;8.70;;
56770;SDS011;42641;59.794;17.616;2023-06-22T05:51:58;9.45;;;8.60;;
56770;SDS011;42641;59.794;17.616;2023-06-22T05:54:27;9.65;;;8.35;;
56770;SDS011;42641;59.794;17.616;2023-06-22T05:56:53;9.52;;;8.63;;
56770;SDS011;42641;59.794;17.616;2023-06-22T05:59:20;9.70;;;8.80;;
56770;SDS011;42641;59.794;17.616;2023-06-22T06:01:46;9.13;;;8.23;;
56770;SDS011;42641;59.794;17.616;2023-06-22T06:04:19;8.93;;;8.13;;
56770;SDS011;42641;59.794;17.616;2023-06-22T06:06:45;9.43;;;8.63;;
56770;SDS011;42641;59.794;17.616;2023-06-22T06:09:15;10.27;;;8.10;;
56770;SDS011;42641;59.794;17.616;2023-06-22T06:11:41;8.88;;;8.07;;
56770;SDS011;42641;59.794;17.616;2023-06-22T06:14:08;9.65;;;8.57;;
56770;SDS011;42641;59.794;17.616;2023-06-22T06:16:34;9.48;;;8.68;;
56770;SDS011;42641;59.794;17.616;2023-06-22T06:19:01;9.50;;;8.70;;
56770;SDS011;42641;59.794;17.616;2023-06-22T06:21:27;9.60;;;8.27;;
56770;SDS011;42641;59.794;17.616;2023-06-22T06:23:54;9.27;;;8.43;;
56770;SDS011;42641;59.794;17.616;2023-06-22T06:26:20;9.35;;;8.45;;
56770;SDS011;42641;59.794;17.616;2023-06-22T06:28:53;9.90;;;8.07;;
56770;SDS011;42641;59.794;17.616;2023-06-22T06:31:21;9.30;;;8.32;;
56770;SDS011;42641;59.794;17.616;2023-06-22T06:33:48;9.32;;;8.50;;
56770;SDS011;42641;59.794;17.616;2023-06-22T06:36:14;10.95;;;9.00;;
56770;SDS011;42641;59.794;17.616;2023-06-22T06:38:42;9.05;;;8.25;;
56770;SDS011;42641;59.794;17.616;2023-06-22T06:41:08;9.60;;;8.50;;
56770;SDS011;42641;59.794;17.616;2023-06-22T06:43:34;9.55;;;8.70;;
56770;SDS011;42641;59.794;17.616;2023-06-22T06:46:01;9.00;;;8.18;;
56770;SDS011;42641;59.794;17.616;2023-06-22T06:48:28;8.57;;;7.88;;
56770;SDS011;42641;59.794;17.616;2023-06-22T06:50:55;8.77;;;8.02;;
56770;SDS011;42641;59.794;17.616;2023-06-22T06:53:21;10.02;;;9.02;;
56770;SDS011;42641;59.794;17.616;2023-06-22T06:55:48;9.50;;;8.70;;
56770;SDS011;42641;59.794;17.616;2023-06-22T06:58:14;9.13;;;8.32;;
56770;SDS011;42641;59.794;17.616;2023-06-22T07:00:42;9.40;;;8.60;;
56770;SDS011;42641;59.794;17.616;2023-06-22T07:03:09;9.68;;;8.63;;
56770;SDS011;42641;59.794;17.616;2023-06-22T07:05:35;9.73;;;8.73;;
56770;SDS011;42641;59.794;17.616;2023-06-22T07:08:02;8.93;;;8.02;;
56770;SDS011;42641;59.794;17.616;2023-06-22T07:10:28;8.93;;;8.13;;
56770;SDS011;42641;59.794;17.616;2023-06-22T07:12:55;9.27;;;8.43;;
56770;SDS011;42641;59.794;17.616;2023-06-22T07:15:22;8.65;;;7.72;;
56770;SDS011;42641;59.794;17.616;2023-06-22T07:17:49;8.90;;;8.10;;
56770;SDS011;42641;59.794;17.616;2023-06-22T07:20:15;8.20;;;7.38;;
56770;SDS011;42641;59.794;17.616;2023-06-22T07:22:43;9.07;;;7.88;;
56770;SDS011;42641;59.794;17.616;2023-06-22T07:25:12;8.32;;;7.57;;
56770;SDS011;42641;59.794;17.616;2023-06-22T07:27:44;7.97;;;7.18;;
56770;SDS011;42641;59.794;17.616;2023-06-22T07:30:24;8.23;;;7.45;;
56770;SDS011;42641;59.794;17.616;2023-06-22T07:32:51;8.57;;;7.78;;
56770;SDS011;42641;59.794;17.616;2023-06-22T07:35:17;8.70;;;7.90;;
56770;SDS011;42641;59.794;17.616;2023-06-22T07:37:43;8.23;;;7.43;;
56770;SDS011;42641;59.794;17.616;2023-06-22T07:40:10;9.75;;;7.70;;
56770;SDS011;42641;59.794;17.616;2023-06-22T07:42:37;8.18;;;7.38;;
56770;SDS011;42641;59.794;17.616;2023-06-22T07:45:04;8.10;;;7.28;;
56770;SDS011;42641;59.794;17.616;2023-06-22T07:47:34;7.90;;;6.93;;
56770;SDS011;42641;59.794;17.616;2023-06-22T07:50:01;7.38;;;6.60;;
56770;SDS011;42641;59.794;17.616;2023-06-22T07:52:30;7.28;;;6.65;;
56770;SDS011;42641;59.794;17.616;2023-06-22T07:54:56;7.28;;;6.20;;
56770;SDS011;42641;59.794;17.616;2023-06-22T07:57:23;7.47;;;6.15;;
56770;SDS011;42641;59.794;17.616;2023-06-22T07:59:58;8.80;;;6.35;;
56770;SDS011;42641;59.794;17.616;2023-06-22T08:02:25;6.75;;;6.15;;
56770;SDS011;42641;59.794;17.616;2023-06-22T08:04:52;7.53;;;6.07;;
56770;SDS011;42641;59.794;17.616;2023-06-22T08:07:18;6.88;;;6.18;;
56770;SDS011;42641;59.794;17.616;2023-06-22T08:09:46;8.07;;;5.93;;
56770;SDS011;42641;59.794;17.616;2023-06-22T08:12:15;7.85;;;6.13;;
56770;SDS011;42641;59.794;17.616;2023-06-22T08:14:42;7.95;;;5.68;;
56770;SDS011;42641;59.794;17.616;2023-06-22T08:17:12;6.40;;;5.32;;
56770;SDS011;42641;59.794;17.616;2023-06-22T08:19:39;6.80;;;5.65;;
56770;SDS011;42641;59.794;17.616;2023-06-22T08:22:05;6.15;;;5.30;;
56770;SDS011;42641;59.794;17.616;2023-06-22T08:24:32;5.75;;;5.25;;
56770;SDS011;42641;59.794;17.616;2023-06-22T08:26:59;6.80;;;5.28;;
56770;SDS011;42641;59.794;17.616;2023-06-22T08:29:25;5.90;;;5.28;;
56770;SDS011;42641;59.794;17.616;2023-06-22T08:31:52;7.70;;;5.53;;
56770;SDS011;42641;59.794;17.616;2023-06-22T08:34:18;5.78;;;5.07;;
56770;SDS011;42641;59.794;17.616;2023-06-22T08:36:47;8.95;;;5.47;;
56770;SDS011;42641;59.794;17.616;2023-06-22T08:39:18;5.80;;;5.20;;
56770;SDS011;42641;59.794;17.616;2023-06-22T08:41:46;5.22;;;4.75;;
56770;SDS011;42641;59.794;17.616;2023-06-22T08:44:13;5.55;;;4.97;;
56770;SDS011;42641;59.794;17.616;2023-06-22T08:46:40;5.53;;;5.03;;
56770;SDS011;42641;59.794;17.616;2023-06-22T08:49:07;9.85;;;4.72;;
56770;SDS011;42641;59.794;17.616;2023-06-22T08:51:35;5.28;;;4.78;;
56770;SDS011;42641;59.794;17.616;2023-06-22T08:54:02;5.22;;;4.72;;
56770;SDS011;42641;59.794;17.616;2023-06-22T08:56:28;6.13;;;4.57;;
56770;SDS011;42641;59.794;17.616;2023-06-22T08:58:55;6.13;;;4.53;;
56770;SDS011;42641;59.794;17.616;2023-06-22T09:01:21;5.20;;;4.57;;
56770;SDS011;42641;59.794;17.616;2023-06-22T09:03:47;5.20;;;4.60;;
56770;SDS011;42641;59.794;17.616;2023-06-22T09:06:21;5.50;;;5.00;;
56770;SDS011;42641;59.794;17.616;2023-06-22T09:08:47;5.40;;;4.55;;
56770;SDS011;42641;59.794;17.616;2023-06-22T09:11:14;6.43;;;4.68;;
56770;SDS011;42641;59.794;17.616;2023-06-22T09:13:41;4.15;;;3.75;;
56770;SDS011;42641;59.794;17.616;2023-06-22T09:16:08;6.90;;;4.90;;
56770;SDS011;42641;59.794;17.616;2023-06-22T09:18:34;5.03;;;4.43;;
56770;SDS011;42641;59.794;17.616;2023-06-22T09:21:01;4.30;;;3.92;;
56770;SDS011;42641;59.794;17.616;2023-06-22T09:23:28;4.90;;;4.40;;
56770;SDS011;42641;59.794;17.616;2023-06-22T09:25:55;4.43;;;4.03;;
56770;SDS011;42641;59.794;17.616;2023-06-22T09:28:21;5.85;;;4.10;;
56770;SDS011;42641;59.794;17.616;2023-06-22T09:30:47;4.53;;;4.13;;
56770;SDS011;42641;59.794;17.616;2023-06-22T09:33:14;8.90;;;3.78;;
56770;SDS011;42641;59.794;17.616;2023-06-22T09:35:40;7.75;;;4.18;;
56770;SDS011;42641;59.794;17.616;2023-06-22T09:38:07;5.15;;;4.22;;
56770;SDS011;42641;59.794;17.616;2023-06-22T09:40:33;4.78;;;3.95;;
56770;SDS011;42641;59.794;17.616;2023-06-22T09:43:05;4.47;;;4.10;;
56770;SDS011;42641;59.794;17.616;2023-06-22T09:45:32;7.95;;;4.38;;
56770;SDS011;42641;59.794;17.616;2023-06-22T09:47:58;4.65;;;4.20;;
56770;SDS011;42641;59.794;17.616;2023-06-22T09:50:25;6.18;;;3.95;;
56770;SDS011;42641;59.794;17.616;2023-06-22T09:52:51;6.90;;;3.55;;
56770;SDS011;42641;59.794;17.616;2023-06-22T09:55:20;4.15;;;3.75;;
56770;SDS011;42641;59.794;17.616;2023-06-22T09:57:47;4.30;;;3.90;;
56770;SDS011;42641;59.794;17.616;2023-06-22T10:00:14;3.53;;;3.22;;
56770;SDS011;42641;59.794;17.616;2023-06-22T10:02:42;8.60;;;3.83;;
56770;SDS011;42641;59.794;17.616;2023-06-22T10:05:09;5.15;;;4.32;;
56770;SDS011;42641;59.794;17.616;2023-06-22T10:07:35;6.00;;;3.65;;
56770;SDS011;42641;59.794;17.616;2023-06-22T10:10:08;5.38;;;3.90;;
56770;SDS011;42641;59.794;17.616;2023-06-22T10:12:35;3.88;;;3.58;;
56770;SDS011;42641;59.794;17.616;2023-06-22T10:15:02;8.88;;;4.28;;
56770;SDS011;42641;59.794;17.616;2023-06-22T10:17:30;4.25;;;3.78;;
56770;SDS011;42641;59.794;17.616;2023-06-22T10:19:56;6.53;;;3.90;;
56770;SDS011;42641;59.794;17.616;2023-06-22T10:22:22;4.47;;;3.50;;
56770;SDS011;42641;59.794;17.616;2023-06-22T10:24:49;4.60;;;3.90;;
56770;SDS011;42641;59.794;17.616;2023-06-22T10:27:15;4.40;;;3.53;;
56770;SDS011;42641;59.794;17.616;2023-06-22T10:29:42;4.40;;;3.70;;
56770;SDS011;42641;59.794;17.616;2023-06-22T10:32:08;4.50;;;3.70;;
56770;SDS011;42641;59.794;17.616;2023-06-22T10:34:35;3.83;;;3.40;;
56770;SDS011;42641;59.794;17.616;2023-06-22T10:37:01;4.15;;;3.55;;
56770;SDS011;42641;59.794;17.616;2023-06-22T10:39:27;3.80;;;3.50;;
56770;SDS011;42641;59.794;17.616;2023-06-22T10:41:54;4.15;;;3.75;;
56770;SDS011;42641;59.794;17.616;2023-06-22T10:44:21;3.65;;;3.33;;
56770;SDS011;42641;59.794;17.616;2023-06-22T10:46:48;6.63;;;3.40;;
56770;SDS011;42641;59.794;17.616;2023-06-22T10:49:14;3.40;;;3.10;;
56770;SDS011;42641;59.794;17.616;2023-06-22T10:51:41;4.40;;;3.53;;
56770;SDS011;42641;59.794;17.616;2023-06-22T10:54:07;5.18;;;3.55;;
56770;SDS011;42641;59.794;17.616;2023-06-22T10:56:34;4.57;;;3.22;;
56770;SDS011;42641;59.794;17.616;2023-06-22T10:59:00;3.38;;;3.17;;
56770;SDS011;42641;59.794;17.616;2023-06-22T11:01:27;4.82;;;3.22;;
56770;SDS011;42641;59.794;17.616;2023-06-22T11:03:54;5.22;;;3.33;;
56770;SDS011;42641;59.794;17.616;2023-06-22T11:06:20;3.75;;;3.42;;
56770;SDS011;42641;59.794;17.616;2023-06-22T11:08:47;4.28;;;3.10;;
56770;SDS011;42641;59.794;17.616;2023-06-22T11:11:13;4.25;;;2.90;;
56770;SDS011;42641;59.794;17.616;2023-06-22T11:13:39;4.40;;;3.00;;
56770;SDS011;42641;59.794;17.616;2023-06-22T11:16:06;3.00;;;2.78;;
56770;SDS011;42641;59.794;17.616;2023-06-22T11:18:32;3.25;;;2.78;;
56770;SDS011;42641;59.794;17.616;2023-06-22T11:20:59;3.05;;;2.85;;
56770;SDS011;42641;59.794;17.616;2023-06-22T11:23:25;2.88;;;2.67;;
56770;SDS011;42641;59.794;17.616;2023-06-22T11:25:54;7.53;;;2.80;;
56770;SDS011;42641;59.794;17.616;2023-06-22T11:28:20;4.47;;;2.92;;
56770;SDS011;42641;59.794;17.616;2023-06-22T11:30:47;6.93;;;3.15;;
56770;SDS011;42641;59.794;17.616;2023-06-22T11:33:13;2.80;;;2.60;;
56770;SDS011;42641;59.794;17.616;2023-06-22T11:35:39;4.20;;;2.85;;
56770;SDS011;42641;59.794;17.616;2023-06-22T11:38:06;4.20;;;2.90;;
56770;SDS011;42641;59.794;17.616;2023-06-22T11:40:33;3.85;;;3.13;;
56770;SDS011;42641;59.794;17.616;2023-06-22T11:42:59;2.75;;;2.55;;
56770;SDS011;42641;59.794;17.616;2023-06-22T11:45:26;3.40;;;3.10;;
56770;SDS011;42641;59.794;17.616;2023-06-22T11:47:52;3.05;;;2.65;;
56770;SDS011;42641;59.794;17.616;2023-06-22T11:50:19;3.58;;;3.00;;
56770;SDS011;42641;59.794;17.616;2023-06-22T11:52:45;2.92;;;2.58;;
56770;SDS011;42641;59.794;17.616;2023-06-22T11:55:12;3.05;;;2.75;;
56770;SDS011;42641;59.794;17.616;2023-06-22T11:57:38;3.20;;;2.90;;
56770;SDS011;42641;59.794;17.616;2023-06-22T12:00:20;2.92;;;2.72;;
56770;SDS011;42641;59.794;17.616;2023-06-22T12:02:48;2.50;;;2.33;;
56770;SDS011;42641;59.794;17.616;2023-06-22T12:05:20;2.83;;;2.60;;
56770;SDS011;42641;59.794;17.616;2023-06-22T12:07:48;2.85;;;2.65;;
56770;SDS011;42641;59.794;17.616;2023-06-22T12:10:15;2.97;;;2.70;;
56770;SDS011;42641;59.794;17.616;2023-06-22T12:12:41;3.00;;;2.70;;
56770;SDS011;42641;59.794;17.616;2023-06-22T12:15:09;2.90;;;2.70;;
56770;SDS011;42641;59.794;17.616;2023-06-22T12:17:36;2.90;;;2.70;;
56770;SDS011;42641;59.794;17.616;2023-06-22T12:20:03;2.97;;;2.60;;
56770;SDS011;42641;59.794;17.616;2023-06-22T12:22:31;2.90;;;2.70;;
56770;SDS011;42641;59.794;17.616;2023-06-22T12:24:58;4.07;;;2.50;;
56770;SDS011;42641;59.794;17.616;2023-06-22T12:27:25;2.65;;;2.40;;
56770;SDS011;42641;59.794;17.616;2023-06-22T12:29:51;2.75;;;2.55;;
56770;SDS011;42641;59.794;17.616;2023-06-22T12:32:18;4.68;;;2.85;;
56770;SDS011;42641;59.794;17.616;2023-06-22T12:34:44;3.85;;;2.50;;
56770;SDS011;42641;59.794;17.616;2023-06-22T12:37:11;2.60;;;2.40;;
56770;SDS011;42641;59.794;17.616;2023-06-22T12:39:37;3.00;;;2.47;;
56770;SDS011;42641;59.794;17.616;2023-06-22T12:42:07;3.38;;;2.60;;
56770;SDS011;42641;59.794;17.616;2023-06-22T12:44:37;3.08;;;2.53;;
56770;SDS011;42641;59.794;17.616;2023-06-22T12:47:04;8.65;;;2.33;;
56770;SDS011;42641;59.794;17.616;2023-06-22T12:49:31;2.35;;;2.25;;
56770;SDS011;42641;59.794;17.616;2023-06-22T12:51:57;9.10;;;2.40;;
56770;SDS011;42641;59.794;17.616;2023-06-22T12:54:24;5.38;;;2.63;;
56770;SDS011;42641;59.794;17.616;2023-06-22T12:56:50;2.40;;;2.20;;
56770;SDS011;42641;59.794;17.616;2023-06-22T12:59:17;3.90;;;2.65;;
56770;SDS011;42641;59.794;17.616;2023-06-22T13:01:43;3.88;;;2.55;;
56770;SDS011;42641;59.794;17.616;2023-06-22T13:04:11;2.67;;;2.22;;
56770;SDS011;42641;59.794;17.616;2023-06-22T13:06:40;2.47;;;2.22;;
56770;SDS011;42641;59.794;17.616;2023-06-22T13:09:08;4.15;;;2.38;;
56770;SDS011;42641;59.794;17.616;2023-06-22T13:11:35;2.83;;;2.63;;
56770;SDS011;42641;59.794;17.616;2023-06-22T13:14:02;4.22;;;2.15;;
56770;SDS011;42641;59.794;17.616;2023-06-22T13:16:28;2.75;;;2.55;;
56770;SDS011;42641;59.794;17.616;2023-06-22T13:18:55;2.60;;;2.40;;
56770;SDS011;42641;59.794;17.616;2023-06-22T13:21:21;2.63;;;2.42;;
56770;SDS011;42641;59.794;17.616;2023-06-22T13:23:48;2.53;;;2.33;;
56770;SDS011;42641;59.794;17.616;2023-06-22T13:26:14;2.25;;;2.15;;
56770;SDS011;42641;59.794;17.616;2023-06-22T13:28:40;5.60;;;2.70;;
56770;SDS011;42641;59.794;17.616;2023-06-22T13:31:07;4.20;;;2.35;;
56770;SDS011;42641;59.794;17.616;2023-06-22T13:33:33;4.03;;;2.10;;
56770;SDS011;42641;59.794;17.616;2023-06-22T13:36:00;3.85;;;2.50;;
56770;SDS011;42641;59.794;17.616;2023-06-22T13:38:27;4.55;;;2.20;;
56770;SDS011;42641;59.794;17.616;2023-06-22T13:40:53;6.75;;;2.33;;
56770;SDS011;42641;59.794;17.616;2023-06-22T13:43:21;2.65;;;2.33;;
56770;SDS011;42641;59.794;17.616;2023-06-22T13:45:48;2.50;;;2.30;;
56770;SDS011;42641;59.794;17.616;2023-06-22T13:48:15;2.40;;;2.20;;
56770;SDS011;42641;59.794;17.616;2023-06-22T13:50:41;2.40;;;2.20;;
56770;SDS011;42641;59.794;17.616;2023-06-22T13:53:09;3.70;;;2.40;;
56770;SDS011;42641;59.794;17.616;2023-06-22T13:55:35;2.33;;;2.13;;
56770;SDS011;42641;59.794;17.616;2023-06-22T13:58:01;2.95;;;2.20;;
56770;SDS011;42641;59.794;17.616;2023-06-22T14:00:28;5.55;;;2.40;;
56770;SDS011;42641;59.794;17.616;2023-06-22T14:02:54;5.22;;;2.35;;
56770;SDS011;42641;59.794;17.616;2023-06-22T14:05:20;2.28;;;2.10;;
56770;SDS011;42641;59.794;17.616;2023-06-22T14:07:47;3.45;;;2.20;;
56770;SDS011;42641;59.794;17.616;2023-06-22T14:10:13;2.53;;;2.35;;
56770;SDS011;42641;59.794;17.616;2023-06-22T14:12:40;3.42;;;2.88;;
56770;SDS011;42641;59.794;17.616;2023-06-22T14:15:06;2.20;;;2.00;;
56770;SDS011;42641;59.794;17.616;2023-06-22T14:17:33;3.78;;;2.38;;
56770;SDS011;42641;59.794;17.616;2023-06-22T14:20:00;4.45;;;2.63;;
56770;SDS011;42641;59.794;17.616;2023-06-22T14:22:26;2.67;;;2.38;;
56770;SDS011;42641;59.794;17.616;2023-06-22T14:24:55;2.78;;;2.42;;
56770;SDS011;42641;59.794;17.616;2023-06-22T14:27:24;4.63;;;2.28;;
56770;SDS011;42641;59.794;17.616;2023-06-22T14:29:50;4.90;;;2.50;;
56770;SDS011;42641;59.794;17.616;2023-06-22T14:32:17;3.15;;;2.50;;
56770;SDS011;42641;59.794;17.616;2023-06-22T14:34:43;2.85;;;2.30;;
56770;SDS011;42641;59.794;17.616;2023-06-22T14:37:10;5.30;;;2.58;;
56770;SDS011;42641;59.794;17.616;2023-06-22T14:39:38;3.15;;;2.15;;
56770;SDS011;42641;59.794;17.616;2023-06-22T14:42:05;2.17;;;2.08;;